Starbuck, Minnesota
Current Conditions -  °F | °C
As of 10:13 PM on Sunday 23 Nov 2014 (Local Time) from KGHW Reporting Station
Scattered Clouds Scattered Clouds  
Wind Chill: 14°   Ceiling: Unl
Heat Index: 27°   Visibility: 10mi
Dew Point: 25°   Wind: 17mph
Humidity: 93%   Direction: 300°WNW
Pressure: 29.44"   Gusts: NA
Location:  45.61°N, 95.53°W
Report Text: KGHW 240413Z AUTO 30015KT 10SM SCT011 M03/M04 A2944 RMK AO2
Loading
Personal Weather Stations






























Interactive Weather Map New forecast layout! Learn more

10-Day Weather Forecast

Advertisements
Track Severe Weather on mobile